createdAt,value
2018-07-19T00:00:42.196Z,71.53
2018-07-19T00:01:42.320Z,71.82
2018-07-19T00:02:42.412Z,71.82
2018-07-19T00:03:42.508Z,71.25
2018-07-19T00:04:42.607Z,71.63
2018-07-19T00:05:42.705Z,72.36
2018-07-19T00:06:42.800Z,72.74
2018-07-19T00:07:42.899Z,73.51
2018-07-19T00:08:42.998Z,74.24
2018-07-19T00:09:43.095Z,74.66
2018-07-19T00:10:43.194Z,74.62
2018-07-19T00:11:43.290Z,75.01
2018-07-19T00:12:43.389Z,75.10
2018-07-19T00:13:43.489Z,75.10
2018-07-19T00:14:43.585Z,75.48
2018-07-19T00:15:43.681Z,75.87
2018-07-19T00:16:43.766Z,75.87
2018-07-19T00:17:43.864Z,75.20
2018-07-19T00:18:43.966Z,75.29
2018-07-19T00:19:44.048Z,75.39
2018-07-19T00:20:44.149Z,74.85
2018-07-19T00:21:44.259Z,74.33
2018-07-19T00:22:44.355Z,74.66
2018-07-19T00:23:44.451Z,74.66
2018-07-19T00:24:44.553Z,74.08
2018-07-19T00:25:44.687Z,73.41
2018-07-19T00:26:44.931Z,73.41
2018-07-19T00:27:44.957Z,73.70
2018-07-19T00:28:45.054Z,73.13
2018-07-19T00:29:45.172Z,73.03
2018-07-19T00:30:45.616Z,73.61
2018-07-19T00:31:45.324Z,73.86
2018-07-19T00:32:45.412Z,74.43
2018-07-19T00:33:45.973Z,75.10
2018-07-19T00:34:45.571Z,75.10
2018-07-19T00:35:45.712Z,75.58
2018-07-19T00:36:45.808Z,76.35
2018-07-19T00:37:45.906Z,76.64
2018-07-19T00:38:46.000Z,76.40
2018-07-19T00:39:46.137Z,76.15
2018-07-19T00:40:46.288Z,76.89
2018-07-19T00:41:46.976Z,77.08
2018-07-19T00:42:46.450Z,77.65
2018-07-19T00:43:47.089Z,77.46
2018-07-19T00:44:46.599Z,77.36
2018-07-19T00:45:47.220Z,77.36
2018-07-19T00:46:46.830Z,76.98
2018-07-19T00:47:46.920Z,77.08
2018-07-19T00:48:47.009Z,77.36
2018-07-19T00:49:47.319Z,77.17
2018-07-19T00:50:47.198Z,77.55
2018-07-19T00:51:47.313Z,77.08
2018-07-19T00:52:47.582Z,77.17
2018-07-19T00:53:48.211Z,76.79
2018-07-19T00:54:47.599Z,77.36
2018-07-19T00:55:47.897Z,77.26
2018-07-19T00:56:47.725Z,77.17
2018-07-19T00:57:47.940Z,77.75
2018-07-19T00:58:48.115Z,77.94
2018-07-19T00:59:48.036Z,77.55
2018-07-19T01:00:48.223Z,77.36
2018-07-19T01:01:48.371Z,77.55
2018-07-19T01:02:48.506Z,77.26
2018-07-19T01:03:48.541Z,77.36
2018-07-19T01:04:48.719Z,76.60
2018-07-19T01:05:48.796Z,76.64
2018-07-19T01:06:48.852Z,76.35
2018-07-19T01:07:48.962Z,76.64
2018-07-19T01:08:49.058Z,76.25
2018-07-19T01:09:49.037Z,76.15
2018-07-19T01:10:49.605Z,75.87
2018-07-19T01:11:49.251Z,75.87
2018-07-19T01:12:49.405Z,75.39
2018-07-19T01:13:49.589Z,75.10
2018-07-19T01:14:49.701Z,75.10
2018-07-19T01:15:49.698Z,74.82
2018-07-19T01:16:49.897Z,75.01
2018-07-19T01:17:50.017Z,75.01
2018-07-19T01:18:50.104Z,74.57
2018-07-19T01:19:50.189Z,74.27
2018-07-19T01:20:50.408Z,74.24
2018-07-19T01:21:50.398Z,74.47
2018-07-19T01:22:50.488Z,74.47
2018-07-19T01:23:50.574Z,74.37
2018-07-19T01:24:50.667Z,74.37
2018-07-19T01:25:50.734Z,74.57
2018-07-19T01:26:50.830Z,74.24
2018-07-19T01:27:50.910Z,74.47
2018-07-19T01:28:51.012Z,74.43
2018-07-19T01:29:51.123Z,74.33
2018-07-19T01:30:51.221Z,74.33
2018-07-19T01:31:51.312Z,74.62
2018-07-19T01:32:51.403Z,74.62
2018-07-19T01:33:51.799Z,74.47
2018-07-19T01:34:51.657Z,74.43
2018-07-19T01:35:51.776Z,74.33
2018-07-19T01:36:51.908Z,74.24
2018-07-19T01:37:51.976Z,74.33
2018-07-19T01:38:52.095Z,74.82
2018-07-19T01:39:52.237Z,74.43
2018-07-19T01:40:52.311Z,74.82
2018-07-19T01:41:52.319Z,74.62
2018-07-19T01:42:52.413Z,74.72
2018-07-19T01:43:52.575Z,74.62
2018-07-19T01:44:52.595Z,75.29
2018-07-19T01:45:52.818Z,75.39
2018-07-19T01:46:52.787Z,75.87
2018-07-19T01:47:52.886Z,75.96
2018-07-19T01:48:53.018Z,75.87
2018-07-19T01:49:53.105Z,75.87
2018-07-19T01:50:53.213Z,76.06
2018-07-19T01:51:53.350Z,75.29
2018-07-19T01:52:53.356Z,75.68
2018-07-19T01:53:53.501Z,75.58
2018-07-19T01:54:53.822Z,75.77
2018-07-19T01:55:53.726Z,75.48
2018-07-19T01:56:53.849Z,75.87
2018-07-19T01:57:53.922Z,75.68
2018-07-19T01:58:54.046Z,75.77
2018-07-19T01:59:54.155Z,75.77
2018-07-19T02:00:54.247Z,75.77
2018-07-19T02:01:54.516Z,75.96
2018-07-19T02:02:54.442Z,75.83
2018-07-19T02:03:54.548Z,76.15
2018-07-19T02:04:54.640Z,75.96
2018-07-19T02:05:54.987Z,76.12
2018-07-19T02:06:54.842Z,75.96
2018-07-19T02:07:54.944Z,75.48
2018-07-19T02:08:55.035Z,75.87
2018-07-19T02:09:55.133Z,75.87
2018-07-19T02:10:55.370Z,75.29
2018-07-19T02:11:55.401Z,74.97
2018-07-19T02:12:55.617Z,75.68
2018-07-19T02:13:55.593Z,75.93
2018-07-19T02:14:55.838Z,75.48
2018-07-19T02:15:55.941Z,75.26
2018-07-19T02:16:56.184Z,75.93
2018-07-19T02:17:56.093Z,76.21
2018-07-19T02:18:56.428Z,76.40
2018-07-19T02:19:56.364Z,76.79
2018-07-19T02:20:56.476Z,77.08
2018-07-19T02:21:56.554Z,76.31
2018-07-19T02:22:56.597Z,76.79
2018-07-19T02:23:56.576Z,76.89
2018-07-19T02:24:56.892Z,76.60
2018-07-19T02:25:56.760Z,77.26
2018-07-19T02:26:56.848Z,77.17
2018-07-19T02:27:57.004Z,77.36
2018-07-19T02:28:57.656Z,77.17
2018-07-19T02:29:57.368Z,77.26
2018-07-19T02:30:57.370Z,77.08
2018-07-19T02:31:57.504Z,76.89
2018-07-19T02:32:57.614Z,77.26
2018-07-19T02:33:57.715Z,76.98
2018-07-19T02:34:57.813Z,77.36
2018-07-19T02:35:57.930Z,77.08
2018-07-19T02:36:58.024Z,77.17
2018-07-19T02:37:58.309Z,76.98
2018-07-19T02:38:58.284Z,77.17
2018-07-19T02:39:58.393Z,77.17
2018-07-19T02:40:58.525Z,77.17
2018-07-19T02:41:58.622Z,77.46
2018-07-19T02:42:58.712Z,77.65
2018-07-19T02:43:58.829Z,77.26
2018-07-19T02:44:58.930Z,77.26
2018-07-19T02:45:59.025Z,77.26
2018-07-19T02:46:59.350Z,77.26
2018-07-19T02:47:59.195Z,77.36
2018-07-19T02:48:59.303Z,77.17
2018-07-19T02:50:00.189Z,77.26
2018-07-19T02:50:59.530Z,76.98
2018-07-19T02:51:59.626Z,77.08
2018-07-19T02:53:00.686Z,77.26
2018-07-19T02:53:59.769Z,77.26
2018-07-19T02:54:59.872Z,76.69
2018-07-19T02:55:59.968Z,76.12
2018-07-19T02:57:00.067Z,76.12
2018-07-19T02:58:00.160Z,76.21
2018-07-19T02:59:00.270Z,76.89
2018-07-19T03:00:00.364Z,76.79
2018-07-19T03:01:00.462Z,76.31
2018-07-19T03:02:00.603Z,75.79
2018-07-19T03:03:00.671Z,76.02
2018-07-19T03:04:00.745Z,76.56
2018-07-19T03:05:00.835Z,76.21
2018-07-19T03:06:00.925Z,75.98
2018-07-19T03:07:01.015Z,76.21
2018-07-19T03:08:01.113Z,76.02
2018-07-19T03:09:01.212Z,76.27
2018-07-19T03:10:01.315Z,76.37
2018-07-19T03:11:01.406Z,76.56
2018-07-19T03:12:01.508Z,76.46
2018-07-19T03:13:01.603Z,76.94
2018-07-19T03:14:01.700Z,76.94
2018-07-19T03:15:01.804Z,76.84
2018-07-19T03:16:01.906Z,76.84
2018-07-19T03:17:02.000Z,76.65
2018-07-19T03:18:02.099Z,76.56
2018-07-19T03:19:02.217Z,76.56
2018-07-19T03:20:02.315Z,76.56
2018-07-19T03:21:02.411Z,77.23
2018-07-19T03:22:02.510Z,76.75
2018-07-19T03:23:02.607Z,76.94
2018-07-19T03:24:02.708Z,76.65
2018-07-19T03:25:02.804Z,77.13
2018-07-19T03:26:02.904Z,77.51
2018-07-19T03:27:03.034Z,77.42
2018-07-19T03:28:03.096Z,76.94
2018-07-19T03:29:03.193Z,77.04
2018-07-19T03:30:03.304Z,77.04
2018-07-19T03:31:03.435Z,77.04
2018-07-19T03:32:03.488Z,77.51
2018-07-19T03:33:03.619Z,77.09
2018-07-19T03:34:03.678Z,77.33
2018-07-19T03:35:03.774Z,78.05
2018-07-19T03:36:03.870Z,77.80
2018-07-19T03:37:03.971Z,77.13
2018-07-19T03:38:04.066Z,77.13
2018-07-19T03:39:04.155Z,77.42
2018-07-19T03:40:04.261Z,77.61
2018-07-19T03:41:04.349Z,77.23
2018-07-19T03:42:04.447Z,77.33
2018-07-19T03:43:04.542Z,76.75
2018-07-19T03:44:04.643Z,76.84
2018-07-19T03:45:04.743Z,76.94
2018-07-19T03:46:04.861Z,76.71
2018-07-19T03:47:04.963Z,76.75
2018-07-19T03:48:05.059Z,77.19
2018-07-19T03:49:05.157Z,77.28
2018-07-19T03:50:05.278Z,77.28
2018-07-19T03:51:05.352Z,77.57
2018-07-19T03:52:05.448Z,77.48
2018-07-19T03:53:05.544Z,77.13
2018-07-19T03:54:05.642Z,77.09
2018-07-19T03:55:05.738Z,77.33
2018-07-19T03:56:05.832Z,77.04
2018-07-19T03:57:05.935Z,76.94
2018-07-19T03:58:06.030Z,77.23
2018-07-19T03:59:06.132Z,77.13
2018-07-19T04:00:06.237Z,77.13
2018-07-19T04:01:06.332Z,77.04
2018-07-19T04:02:06.433Z,77.33
2018-07-19T04:03:06.533Z,77.13
2018-07-19T04:04:06.631Z,77.13
2018-07-19T04:05:06.731Z,77.33
2018-07-19T04:06:06.851Z,77.51
2018-07-19T04:07:06.911Z,77.38
2018-07-19T04:08:07.006Z,77.61
2018-07-19T04:09:07.104Z,77.76
2018-07-19T04:10:07.202Z,77.90
2018-07-19T04:11:07.300Z,77.99
2018-07-19T04:12:07.405Z,77.42
2018-07-19T04:13:07.540Z,77.80
2018-07-19T04:14:07.591Z,77.80
2018-07-19T04:15:07.692Z,78.19
2018-07-19T04:16:07.787Z,77.70
2018-07-19T04:17:07.935Z,77.90
2018-07-19T04:18:07.985Z,77.99
2018-07-19T04:19:08.084Z,77.61
2018-07-19T04:20:08.198Z,77.61
2018-07-19T04:21:08.268Z,77.61
2018-07-19T04:22:08.368Z,77.80
2018-07-19T04:23:08.469Z,77.99
2018-07-19T04:24:08.569Z,77.90
2018-07-19T04:25:08.688Z,77.80
2018-07-19T04:26:08.762Z,77.70
2018-07-19T04:27:08.851Z,77.51
2018-07-19T04:28:08.956Z,77.42
2018-07-19T04:29:09.052Z,77.23
2018-07-19T04:30:09.151Z,77.23
2018-07-19T04:31:09.262Z,77.04
2018-07-19T04:32:09.345Z,77.23
2018-07-19T04:33:09.441Z,77.33
2018-07-19T04:34:09.532Z,77.42
2018-07-19T04:35:09.634Z,77.33
2018-07-19T04:36:09.731Z,77.23
2018-07-19T04:37:09.844Z,77.42
2018-07-19T04:38:09.934Z,77.23
2018-07-19T04:39:10.024Z,77.23
2018-07-19T04:40:10.113Z,77.42
2018-07-19T04:41:10.207Z,77.23
2018-07-19T04:42:10.306Z,77.33
2018-07-19T04:43:10.407Z,77.42
2018-07-19T04:44:10.505Z,77.46
2018-07-19T04:45:10.600Z,77.13
2018-07-19T04:46:10.695Z,77.55
2018-07-19T04:47:10.792Z,77.65
2018-07-19T04:48:10.912Z,77.13
2018-07-19T04:49:10.981Z,77.13
2018-07-19T04:50:11.084Z,77.26
2018-07-19T04:51:11.173Z,77.26
2018-07-19T04:52:11.269Z,77.42
2018-07-19T04:53:11.369Z,77.99
2018-07-19T04:54:11.484Z,77.55
2018-07-19T04:55:11.589Z,77.26
2018-07-19T04:56:11.684Z,77.26
2018-07-19T04:57:11.767Z,77.36
2018-07-19T04:58:11.863Z,76.79
2018-07-19T04:59:11.961Z,76.69
2018-07-19T05:00:12.059Z,76.60
2018-07-19T05:01:12.158Z,76.60
2018-07-19T05:02:12.258Z,76.60
2018-07-19T05:03:12.353Z,76.60
2018-07-19T05:04:12.455Z,76.40
2018-07-19T05:05:12.546Z,76.54
2018-07-19T05:06:12.641Z,76.21
2018-07-19T05:07:12.731Z,76.60
2018-07-19T05:08:12.827Z,76.50
2018-07-19T05:09:12.933Z,76.31
2018-07-19T05:10:13.026Z,76.89
2018-07-19T05:11:13.131Z,76.98
2018-07-19T05:12:13.224Z,76.98
2018-07-19T05:13:13.312Z,76.92
2018-07-19T05:14:13.483Z,76.54
2018-07-19T05:15:13.526Z,76.64
2018-07-19T05:16:13.623Z,76.06
2018-07-19T05:17:13.722Z,75.77
2018-07-19T05:18:13.819Z,75.68
2018-07-19T05:19:13.921Z,75.58
2018-07-19T05:20:14.030Z,75.58
2018-07-19T05:21:14.131Z,75.33
2018-07-19T05:22:14.231Z,74.95
2018-07-19T05:23:14.349Z,74.66
2018-07-19T05:24:14.429Z,74.18
2018-07-19T05:25:14.527Z,74.08
2018-07-19T05:26:14.671Z,73.41
2018-07-19T05:27:15.723Z,73.41
2018-07-19T05:28:14.859Z,73.90
2018-07-19T05:29:14.994Z,73.90
2018-07-19T05:30:15.083Z,73.74
2018-07-19T05:31:15.185Z,73.35
2018-07-19T05:32:15.290Z,72.97
2018-07-19T05:33:15.448Z,72.11
2018-07-19T05:34:15.442Z,71.28
2018-07-19T05:35:15.546Z,70.64
2018-07-19T05:36:15.760Z,69.62
2018-07-19T05:37:15.722Z,68.41
2018-07-19T05:38:15.872Z,66.81
2018-07-19T05:39:16.028Z,65.20
2018-07-19T05:40:16.077Z,64.08
2018-07-19T05:41:16.172Z,62.83
2018-07-19T05:42:16.287Z,61.90
2018-07-19T05:43:16.353Z,60.20
2018-07-19T05:44:16.457Z,59.36
2018-07-19T05:45:16.556Z,58.14
2018-07-19T05:46:16.655Z,57.10
2018-07-19T05:47:16.750Z,56.26
2018-07-19T05:48:16.874Z,55.13
2018-07-19T05:49:17.088Z,54.17
2018-07-19T05:50:17.090Z,53.88
2018-07-19T05:51:17.228Z,53.42
2018-07-19T05:52:17.331Z,52.48
2018-07-19T05:53:17.428Z,51.61
2018-07-19T05:54:17.537Z,51.23
2018-07-19T05:55:17.665Z,51.06
2018-07-19T05:56:17.777Z,51.15
2018-07-19T05:57:17.887Z,50.38
2018-07-19T05:58:17.997Z,51.15
2018-07-19T05:59:18.133Z,51.06
2018-07-19T06:00:18.259Z,50.40
2018-07-19T06:01:18.369Z,49.92
2018-07-19T06:02:18.472Z,49.73
2018-07-19T06:03:18.581Z,49.46
2018-07-19T06:04:18.734Z,48.59
2018-07-19T06:05:18.848Z,48.13
2018-07-19T06:06:19.141Z,47.26
2018-07-19T06:07:19.003Z,46.48
2018-07-19T06:08:19.346Z,46.31
2018-07-19T06:09:19.231Z,45.85
2018-07-19T06:10:19.337Z,45.27
2018-07-19T06:11:19.526Z,44.49
2018-07-19T06:12:19.598Z,44.49
2018-07-19T06:13:19.715Z,44.13
2018-07-19T06:14:19.937Z,44.03
2018-07-19T06:15:19.963Z,43.76
2018-07-19T06:16:20.099Z,43.37
2018-07-19T06:17:20.196Z,43.66
2018-07-19T06:18:20.316Z,43.66
2018-07-19T06:19:20.413Z,43.57
2018-07-19T06:20:20.517Z,43.57
2018-07-19T06:21:20.668Z,43.37
2018-07-19T06:22:20.794Z,43.40
2018-07-19T06:23:20.954Z,43.08
2018-07-19T06:24:21.230Z,43.18
2018-07-19T06:25:21.240Z,43.66
2018-07-19T06:26:21.352Z,43.37
2018-07-19T06:27:21.480Z,43.74
2018-07-19T06:28:21.606Z,43.33
2018-07-19T06:29:21.697Z,43.91
2018-07-19T06:30:21.894Z,44.20
2018-07-19T06:31:21.895Z,45.25
2018-07-19T06:32:21.999Z,45.15
2018-07-19T06:33:22.137Z,45.51
2018-07-19T06:34:22.345Z,45.71
2018-07-19T06:35:22.326Z,45.42
2018-07-19T06:36:22.437Z,45.51
2018-07-19T06:37:22.539Z,45.13
2018-07-19T06:38:22.641Z,45.13
2018-07-19T06:39:22.745Z,44.84
2018-07-19T06:40:22.853Z,45.40
2018-07-19T06:41:22.983Z,45.68
2018-07-19T06:42:23.094Z,46.46
2018-07-19T06:43:23.419Z,47.02
2018-07-19T06:44:23.268Z,47.89
2018-07-19T06:45:23.437Z,48.37
2018-07-19T06:46:23.523Z,47.69
2018-07-19T06:47:23.622Z,47.21
2018-07-19T06:48:23.716Z,47.86
2018-07-19T06:49:23.871Z,48.66
2018-07-19T06:50:24.003Z,48.64
2018-07-19T06:51:24.097Z,48.54
2018-07-19T06:52:24.192Z,48.64
2018-07-19T06:53:24.297Z,49.22
2018-07-19T06:54:24.398Z,48.81
2018-07-19T06:55:24.525Z,49.02
2018-07-19T06:56:24.630Z,49.58
2018-07-19T06:57:24.759Z,49.68
2018-07-19T06:58:24.838Z,49.00
2018-07-19T06:59:24.936Z,49.00
2018-07-19T07:00:25.048Z,49.29
2018-07-19T07:01:25.153Z,49.77
2018-07-19T07:02:25.257Z,50.26
2018-07-19T07:03:25.371Z,51.20
2018-07-19T07:04:25.486Z,50.93
2018-07-19T07:05:25.570Z,51.01
2018-07-19T07:06:25.701Z,51.61
2018-07-19T07:07:25.819Z,51.01
2018-07-19T07:08:25.971Z,51.01
2018-07-19T07:09:25.968Z,50.26
2018-07-19T07:10:26.071Z,50.16
2018-07-19T07:11:26.174Z,50.45
2018-07-19T07:12:26.284Z,49.77
2018-07-19T07:13:26.378Z,49.68
2018-07-19T07:14:26.483Z,50.55
2018-07-19T07:15:26.584Z,50.45
2018-07-19T07:16:26.691Z,50.74
2018-07-19T07:17:26.783Z,50.93
2018-07-19T07:18:26.895Z,50.55
2018-07-19T07:19:27.028Z,49.97
2018-07-19T07:20:27.134Z,49.29
2018-07-19T07:21:27.231Z,49.77
2018-07-19T07:22:27.334Z,49.68
2018-07-19T07:23:27.482Z,48.52
2018-07-19T07:24:27.582Z,48.83
2018-07-19T07:25:27.705Z,48.32
2018-07-19T07:26:27.801Z,48.54
2018-07-19T07:27:27.915Z,47.77
2018-07-19T07:28:28.022Z,47.58
2018-07-19T07:29:28.109Z,47.19
2018-07-19T07:30:28.241Z,47.19
2018-07-19T07:31:28.363Z,47.58
2018-07-19T07:32:28.463Z,46.90
2018-07-19T07:33:28.570Z,46.22
2018-07-19T07:34:28.670Z,46.80
2018-07-19T07:35:28.773Z,46.80
2018-07-19T07:36:28.877Z,46.61
2018-07-19T07:37:28.985Z,45.66
2018-07-19T07:38:29.086Z,45.18
2018-07-19T07:39:29.210Z,45.06
2018-07-19T07:40:29.373Z,45.18
2018-07-19T07:41:29.474Z,45.16
2018-07-19T07:42:29.573Z,44.87
2018-07-19T07:43:29.683Z,44.79
2018-07-19T07:44:29.797Z,44.31
2018-07-19T07:45:29.888Z,44.12
2018-07-19T07:46:29.988Z,43.73
2018-07-19T07:47:30.088Z,43.82
2018-07-19T07:48:30.205Z,43.63
2018-07-19T07:49:30.296Z,44.02
2018-07-19T07:50:30.398Z,44.21
2018-07-19T07:51:30.511Z,44.21
2018-07-19T07:52:30.613Z,44.21
2018-07-19T07:53:31.259Z,44.02
2018-07-19T07:54:30.860Z,43.63
2018-07-19T07:55:30.959Z,44.02
2018-07-19T07:56:31.061Z,43.63
2018-07-19T07:57:31.165Z,43.54
2018-07-19T07:58:31.265Z,43.73
2018-07-19T07:59:31.364Z,43.92
2018-07-19T08:00:31.478Z,43.82
2018-07-19T08:01:31.557Z,43.73
2018-07-19T08:02:31.659Z,43.75
2018-07-19T08:03:31.758Z,43.46
2018-07-19T08:04:31.892Z,43.75
2018-07-19T08:05:31.950Z,42.68
2018-07-19T08:06:32.051Z,42.40
2018-07-19T08:07:32.160Z,41.62
2018-07-19T08:08:32.268Z,42.00
2018-07-19T08:09:32.372Z,41.52
2018-07-19T08:10:32.473Z,41.24
2018-07-19T08:11:32.575Z,41.24
2018-07-19T08:12:32.685Z,40.75
2018-07-19T08:13:32.787Z,40.56
2018-07-19T08:14:32.895Z,41.14
2018-07-19T08:15:33.002Z,41.24
2018-07-19T08:16:33.101Z,40.75
2018-07-19T08:17:33.202Z,40.84
2018-07-19T08:18:33.304Z,40.75
2018-07-19T08:19:33.407Z,40.75
2018-07-19T08:20:33.508Z,40.56
2018-07-19T08:21:33.610Z,40.77
2018-07-19T08:22:33.725Z,41.45
2018-07-19T08:23:33.820Z,41.25
2018-07-19T08:24:33.951Z,40.77
2018-07-19T08:25:34.037Z,39.53
2018-07-19T08:26:34.129Z,39.41
2018-07-19T08:27:34.236Z,39.12
2018-07-19T08:28:34.338Z,39.34
2018-07-19T08:29:34.438Z,40.11
2018-07-19T08:30:34.544Z,40.59
2018-07-19T08:31:34.645Z,40.21
2018-07-19T08:32:34.752Z,39.53
2018-07-19T08:33:34.857Z,39.45
2018-07-19T08:34:34.963Z,38.29
2018-07-19T08:35:35.068Z,37.90
2018-07-19T08:36:35.171Z,37.41
2018-07-19T08:37:35.268Z,37.34
2018-07-19T08:38:35.371Z,37.34
2018-07-19T08:39:35.474Z,36.95
2018-07-19T08:40:35.564Z,35.30
2018-07-19T08:41:35.705Z,35.59
2018-07-19T08:42:35.762Z,36.83
2018-07-19T08:43:35.870Z,35.59
2018-07-19T08:44:35.975Z,35.69
2018-07-19T08:45:36.073Z,36.24
2018-07-19T08:46:36.180Z,37.19
2018-07-19T08:47:36.289Z,37.30
2018-07-19T08:48:36.389Z,36.41
2018-07-19T08:49:36.516Z,36.41
2018-07-19T08:50:36.592Z,37.77
2018-07-19T08:51:36.698Z,37.77
2018-07-19T08:52:36.787Z,37.21
2018-07-19T08:53:36.898Z,37.23
2018-07-19T08:54:36.998Z,36.74
2018-07-19T08:55:37.104Z,35.67
2018-07-19T08:56:37.212Z,35.19
2018-07-19T08:57:37.645Z,35.21
2018-07-19T08:58:37.429Z,34.91
2018-07-19T08:59:37.525Z,35.01
2018-07-19T09:00:37.632Z,35.40
2018-07-19T09:01:37.738Z,34.81
2018-07-19T09:02:37.844Z,35.11
2018-07-19T09:03:38.038Z,34.72
2018-07-19T09:04:38.038Z,34.91
2018-07-19T09:05:38.142Z,35.01
2018-07-19T09:06:38.245Z,35.21
2018-07-19T09:07:38.347Z,35.30
2018-07-19T09:08:38.456Z,35.49
2018-07-19T09:09:38.563Z,34.89
2018-07-19T09:10:38.660Z,35.57
2018-07-19T09:11:38.773Z,35.28
2018-07-19T09:12:38.887Z,34.99
2018-07-19T09:13:38.993Z,34.97
2018-07-19T09:14:39.099Z,35.66
2018-07-19T09:15:39.204Z,36.35
2018-07-19T09:16:39.307Z,36.64
2018-07-19T09:17:39.410Z,35.67
2018-07-19T09:18:39.518Z,35.28
2018-07-19T09:19:39.715Z,35.67
2018-07-19T09:20:39.727Z,35.28
2018-07-19T09:21:39.857Z,35.01
2018-07-19T09:22:39.957Z,34.62
2018-07-19T09:23:40.048Z,35.01
2018-07-19T09:24:40.154Z,35.41
2018-07-19T09:25:40.261Z,35.90
2018-07-19T09:26:40.421Z,34.35
2018-07-19T09:27:40.478Z,34.74
2018-07-19T09:28:40.585Z,34.62
2018-07-19T09:29:40.694Z,35.01
2018-07-19T09:30:40.801Z,35.80
2018-07-19T09:31:40.910Z,34.54
2018-07-19T09:32:41.029Z,34.06
2018-07-19T09:33:41.118Z,33.76
2018-07-19T09:34:41.232Z,33.59
2018-07-19T09:35:41.336Z,32.71
2018-07-19T09:36:41.443Z,32.41
2018-07-19T09:37:41.547Z,33.09
2018-07-19T09:38:41.710Z,33.28
2018-07-19T09:39:41.757Z,33.47
2018-07-19T09:40:41.859Z,33.29
2018-07-19T09:41:41.970Z,33.18
2018-07-19T09:42:42.069Z,32.97
2018-07-19T09:43:42.172Z,33.73
2018-07-19T09:44:42.275Z,33.73
2018-07-19T09:45:42.380Z,33.84
2018-07-19T09:46:42.481Z,33.75
2018-07-19T09:47:42.584Z,33.76
2018-07-19T09:48:42.687Z,33.57
2018-07-19T09:49:42.785Z,33.57
2018-07-19T09:50:42.889Z,33.28
2018-07-19T09:51:42.993Z,33.57
2018-07-19T09:52:43.099Z,32.60
2018-07-19T09:53:43.203Z,33.28
2018-07-19T09:54:43.323Z,33.76
2018-07-19T09:55:43.412Z,34.06
2018-07-19T09:56:43.531Z,34.04
2018-07-19T09:57:43.634Z,34.14
2018-07-19T09:58:43.740Z,33.28
2018-07-19T09:59:43.845Z,33.38
2018-07-19T10:00:43.953Z,33.18
2018-07-19T10:01:44.067Z,33.76
2018-07-19T10:02:44.164Z,33.67
2018-07-19T10:03:44.288Z,33.09
2018-07-19T10:04:44.393Z,34.36
2018-07-19T10:05:44.547Z,33.20
2018-07-19T10:06:44.604Z,33.47
2018-07-19T10:07:44.772Z,34.17
2018-07-19T10:08:44.897Z,34.17
2018-07-19T10:09:45.140Z,32.71
2018-07-19T10:10:45.142Z,33.02
2018-07-19T10:11:45.251Z,32.64
2018-07-19T10:12:45.362Z,31.76
2018-07-19T10:13:45.549Z,31.76
2018-07-19T10:14:45.607Z,32.15
2018-07-19T10:15:45.701Z,31.66
2018-07-19T10:16:45.859Z,31.84
2018-07-19T10:17:45.956Z,33.47
2018-07-19T10:18:46.069Z,33.67
2018-07-19T10:19:46.442Z,34.08
2018-07-19T10:20:46.342Z,33.88
2018-07-19T10:21:46.455Z,34.08
2018-07-19T10:22:46.554Z,32.99
2018-07-19T10:23:46.689Z,33.38
2018-07-19T10:24:46.784Z,33.76
2018-07-19T10:25:46.881Z,34.17
2018-07-19T10:26:46.986Z,33.29
2018-07-19T10:27:47.099Z,32.92
2018-07-19T10:28:47.208Z,32.54
2018-07-19T10:29:47.342Z,31.76
2018-07-19T10:30:47.592Z,32.07
2018-07-19T10:31:47.591Z,32.55
2018-07-19T10:32:47.756Z,31.88
2018-07-19T10:33:47.827Z,31.47
2018-07-19T10:34:48.044Z,32.13
2018-07-19T10:35:48.093Z,32.71
2018-07-19T10:36:48.195Z,31.74
2018-07-19T10:37:48.356Z,32.04
2018-07-19T10:38:48.457Z,32.81
2018-07-19T10:39:48.557Z,32.54
2018-07-19T10:40:48.662Z,32.15
2018-07-19T10:41:48.764Z,31.85
2018-07-19T10:42:48.864Z,31.58
2018-07-19T10:43:48.972Z,30.71
2018-07-19T10:44:49.087Z,31.68
2018-07-19T10:45:49.186Z,31.79
2018-07-19T10:46:49.277Z,31.50
2018-07-19T10:47:49.386Z,31.70
2018-07-19T10:48:49.492Z,32.28
2018-07-19T10:49:49.598Z,31.79
2018-07-19T10:50:49.713Z,30.82
2018-07-19T10:51:49.914Z,31.29
2018-07-19T10:52:49.943Z,31.85
2018-07-19T10:53:50.040Z,32.05
2018-07-19T10:54:50.132Z,32.65
2018-07-19T10:55:50.238Z,31.58
2018-07-19T10:56:50.348Z,31.77
2018-07-19T10:57:50.469Z,30.80
2018-07-19T10:58:50.575Z,31.40
2018-07-19T10:59:50.728Z,31.30
2018-07-19T11:00:50.831Z,30.74
2018-07-19T11:01:50.943Z,31.60
2018-07-19T11:02:51.114Z,30.91
2018-07-19T11:03:51.152Z,31.21
2018-07-19T11:04:51.259Z,31.21
2018-07-19T11:05:51.379Z,31.40
2018-07-19T11:06:51.489Z,31.11
2018-07-19T11:07:51.587Z,31.21
2018-07-19T11:08:51.694Z,31.41
2018-07-19T11:09:51.821Z,30.74
2018-07-19T11:10:51.911Z,31.03
2018-07-19T11:11:52.025Z,30.54
2018-07-19T11:12:52.143Z,30.55
2018-07-19T11:13:52.249Z,30.36
2018-07-19T11:14:52.350Z,30.25
2018-07-19T11:15:52.456Z,30.62
2018-07-19T11:16:52.563Z,30.82
2018-07-19T11:17:52.672Z,31.70
2018-07-19T11:18:52.780Z,31.48
2018-07-19T11:19:52.884Z,31.58
2018-07-19T11:20:52.988Z,31.29
2018-07-19T11:21:53.088Z,31.58
2018-07-19T11:22:53.182Z,31.66
2018-07-19T11:23:53.308Z,32.05
2018-07-19T11:24:53.456Z,32.75
2018-07-19T11:25:53.558Z,32.07
2018-07-19T11:26:53.677Z,32.54
2018-07-19T11:27:53.766Z,32.35
2018-07-19T11:28:53.869Z,31.77
2018-07-19T11:29:53.980Z,31.30
2018-07-19T11:30:54.087Z,31.30
2018-07-19T11:31:54.176Z,31.41
2018-07-19T11:32:54.277Z,32.00
2018-07-19T11:33:54.389Z,30.44
2018-07-19T11:34:54.465Z,30.35
2018-07-19T11:35:54.558Z,30.65
2018-07-19T11:36:54.653Z,30.55
2018-07-19T11:37:54.789Z,30.17
2018-07-19T11:38:54.921Z,29.49
2018-07-19T11:39:55.029Z,29.78
2018-07-19T11:40:55.128Z,30.26
2018-07-19T11:41:55.236Z,29.97
2018-07-19T11:42:55.355Z,29.50
2018-07-19T11:43:55.463Z,29.58
2018-07-19T11:44:55.569Z,30.05
2018-07-19T11:45:55.665Z,29.47
2018-07-19T11:46:55.775Z,30.64
2018-07-19T11:47:55.884Z,30.07
2018-07-19T11:48:55.986Z,29.39
2018-07-19T11:49:56.106Z,28.99
2018-07-19T11:50:56.199Z,29.66
2018-07-19T11:51:56.315Z,29.18
2018-07-19T11:52:56.417Z,29.29
2018-07-19T11:53:56.511Z,29.76
2018-07-19T11:54:56.616Z,29.49
2018-07-19T11:55:56.725Z,29.57
2018-07-19T11:56:56.832Z,29.29
2018-07-19T11:57:56.935Z,29.39
2018-07-19T11:58:57.030Z,29.50
2018-07-19T11:59:57.128Z,29.89
2018-07-19T12:00:57.242Z,29.21
2018-07-19T12:01:57.350Z,28.72
2018-07-19T12:02:57.455Z,28.61
2018-07-19T12:03:57.564Z,28.90
2018-07-19T12:04:57.655Z,29.39
2018-07-19T12:05:57.779Z,28.79
2018-07-19T12:06:57.881Z,29.10
2018-07-19T12:07:57.988Z,28.90
2018-07-19T12:08:58.095Z,29.10
2018-07-19T12:09:58.207Z,28.80
2018-07-19T12:10:58.308Z,28.61
2018-07-19T12:11:58.416Z,28.90
2018-07-19T12:12:58.522Z,28.80
2018-07-19T12:13:58.628Z,29.00
2018-07-19T12:14:58.733Z,28.80
2018-07-19T12:15:58.836Z,28.90
2018-07-19T12:16:58.941Z,28.90
2018-07-19T12:17:59.050Z,28.99
2018-07-19T12:18:59.151Z,29.57
2018-07-19T12:19:59.258Z,29.76
2018-07-19T12:20:59.368Z,29.96
2018-07-19T12:21:59.468Z,29.28
2018-07-19T12:22:59.579Z,29.28
2018-07-19T12:23:59.686Z,29.28
2018-07-19T12:24:59.798Z,29.08
2018-07-19T12:25:59.910Z,29.00
2018-07-19T12:27:00.017Z,28.90
2018-07-19T12:28:00.126Z,28.42
2018-07-19T12:29:00.246Z,28.22
2018-07-19T12:30:00.376Z,29.00
2018-07-19T12:31:00.470Z,29.00
2018-07-19T12:32:00.570Z,29.47
2018-07-19T12:33:00.694Z,29.75
2018-07-19T12:34:00.784Z,30.12
2018-07-19T12:35:00.895Z,30.02
2018-07-19T12:36:00.999Z,30.71
2018-07-19T12:37:01.108Z,30.41
2018-07-19T12:38:01.214Z,30.24
2018-07-19T12:39:01.319Z,29.36
2018-07-19T12:40:01.423Z,29.16
2018-07-19T12:41:01.535Z,29.16
2018-07-19T12:42:01.642Z,29.26
2018-07-19T12:43:01.748Z,29.38
2018-07-19T12:44:01.871Z,29.57
2018-07-19T12:45:01.979Z,29.08
2018-07-19T12:46:02.085Z,28.80
2018-07-19T12:47:02.193Z,28.69
2018-07-19T12:48:02.299Z,28.69
2018-07-19T12:49:02.409Z,28.69
2018-07-19T12:50:02.509Z,29.08
2018-07-19T12:51:02.620Z,29.28
2018-07-19T12:52:02.727Z,28.69
2018-07-19T12:53:02.845Z,29.18
2018-07-19T12:54:02.936Z,28.99